To NAV CANADA Home Page Login to a new session Search on AWWS site Disclaimer Vers la page française équivalente Tips FAQ What's new on the site To the Forecasts and Observations / NOTAM section To "File a Flight Plan" website Publications and other links Update of the User's profile FIC Telephone Numbers My Weather Data Folder Route Weather Data Regional Weather Data Local Weather Data To the Forecasts and Observations / NOTAM section
Request Generated 04/08/2020 at 09:11:03 UTC . Weather information available at that time is displayed.

METAR/TAF

KITCHENER/WATERLOO/ON    (show WxCam)

METAR CYKF 080900Z AUTO 00000KT 5SM BR OVC010 05/04 A2959 RMK SLP025=
SPECI CYKF 080820Z AUTO 09003KT 310V100 3SM BR OVC010 04/04 A2959 RMK SLP025=
SPECI CYKF 080801Z AUTO VRB02KT 2 1/2SM BR OVC010 04/04 A2959 RMK SLP028=
METAR CYKF 080800Z AUTO 36003KT 330V050 2 1/4SM BR BKN008 OVC012 04/04 A2959 RMK SLP028=
SPECI CYKF 080757Z AUTO 01004KT 310V040 2 1/4SM BR OVC010 04/04 A2959 RMK SLP027=
SPECI CYKF 080753Z AUTO 36003KT 310V060 2SM BR BKN008 OVC012 04/04 A2960 RMK SLP029=
SPECI CYKF 080750Z AUTO VRB02KT 2SM BR SCT007 OVC012 04/04 A2960 RMK SLP028=
SPECI CYKF 080747Z AUTO 01003KT 360V060 2SM BR BKN007 OVC012 04/04 A2960 RMK SLP028=
SPECI CYKF 080746Z AUTO 03003KT 1 3/4SM BR SCT007 OVC012 04/04 A2960 RMK SLP028=
METAR CYKF 080700Z AUTO 00000KT 1 3/4SM BR BKN007 OVC013 05/04 A2960 RMK SLP031=

TAF CYKF 080738Z 0808/0820 10005KT 6SM BR OVC010 TEMPO 0808/0810
11/2SM BR OVC005
FM081000 09003KT 1SM -DZ BR OVC003 TEMPO 0810/0814 3SM -DZ BR
OVC008
FM081400 28012KT 3SM -DZ BR OVC008
FM081700 29015KT P6SM FEW025
RMK FCST BASED ON AUTO OBS. NXT FCST BY 081400Z=

LONDON/ON    

METAR CYXU 080900Z VRB02KT 3/8SM R15/2200FT/N FG VV001 07/07 A2959 RMK FG8 SLP026=
METAR CYXU 080800Z 00000KT 3/8SM R15/2400FT/N FG VV001 06/06 A2959 RMK FG8 SLP027=
SPECI CYXU 080728Z 07004KT 1/2SM R15/5000VP6000FT/D FG VV001 06/06 A2959 RMK FG8 SLP026=
METAR CYXU 080700Z 08007KT 1SM R15/P6000FT/D BR OVC002 07/06 A2960 RMK ST8 SLP029=

TAF AMD CYXU 080744Z 0807/0906 09005KT 1/2SM -DZ FG VV001 TEMPO
0807/0811 3SM BR OVC004
FM081100 29008KT 2SM -DZ BR OVC004 TEMPO 0811/0813 6SM BR OVC006
FM081300 31010KT 3SM BR OVC006 TEMPO 0813/0816 P6SM NSW BKN015
FM081600 31012G22KT P6SM FEW015
FM082000 31010G20KT P6SM BKN030
FM082300 20010KT P6SM -SHRA BKN020 OVC040
FM090200 20007KT 2SM -SHRA BR OVC006 PROB30 0904/0906 1/2SM SHRA
VV002
RMK NXT FCST BY 081200Z=

HAMILTON/ON    

METAR CYHM 080900Z 03006KT 12SM BKN014 04/03 A2958 RMK SC7 SLP024=
SPECI CYHM 080853Z 04006KT 10SM BKN013 BKN025 04/03 A2958 RMK CF5SC2 SLP024=
SPECI CYHM 080840Z 04005KT 8SM FEW008 SCT014 BKN026 05/04 A2958 RMK CF2SC2SC3 MOON BRIGHTLY VISBL SLP024=
METAR CYHM 080800Z 03006KT 7SM FEW007 OVC013 05/04 A2959 RMK SF2SC6 SLP026=
SPECI CYHM 080738Z 02007KT 7SM FEW007 OVC014 05/04 A2958 RMK SF2SC6 SLP024=
METAR CYHM 080700Z 01006KT 7SM FEW006 OVC016 05/04 A2959 RMK SF1SC7 SLP027=

TAF AMD CYHM 080848Z 0808/0906 03006KT P6SM BKN025 TEMPO 0808/0814
3/4SM -DZ BR OVC005 PROB30 0810/0813 1/4SM -DZ FG VV001
FM081400 VRB03KT 4SM BR OVC005 TEMPO 0814/0816 P6SM NSW OVC010
FM081600 28013KT P6SM BKN010 TEMPO 0816/0818 FEW025
FM081800 28012G22KT P6SM FEW025
FM082200 26010KT P6SM BKN030
FM090300 18008KT 3SM -SHRA BR SCT008 OVC012 PROB30 0903/0906
11/2SM SHRA BR OVC004
RMK NXT FCST BY 081200Z=

TORONTO/LESTER B. PEARSON INTL/ON    

METAR CYYZ 080900Z 15007KT 15SM OVC022 06/04 A2960 RMK SC8 SLP027=
METAR CYYZ 080800Z 20003KT 15SM OVC025 06/04 A2959 RMK SC8 SLP024=
METAR CYYZ 080700Z 08008KT 15SM OVC025 06/04 A2960 RMK SC8 SLP029=

TAF CYYZ 080838Z 0809/0912 VRB03KT P6SM OVC025 TEMPO 0809/0811 2SM
-DZ BR OVC005 PROB30 0809/0811 11/2SM BR OVC003
FM081100 18008KT 5SM -DZ BR OVC006 TEMPO 0811/0817 P6SM NSW
BKN015
FM081700 29010G20KT P6SM BKN015
FM081800 28012G22KT P6SM FEW030
BECMG 0822/0824 29012KT
FM090100 VRB03KT P6SM BKN030
FM090400 09008KT 4SM -SHRA BR BKN010 OVC030 PROB30 0905/0908
11/2SM SHRA BR OVC003
FM090800 35018G28KT 11/2SM -SHRA BR OVC007
FM091000 33012G22KT P6SM SCT050
RMK NXT FCST BY 081200Z=

TORONTO/BILLY BISHOP TORONTO CITY AIRPORT/ON    (show WxCam)

METAR CYTZ 080900Z AUTO 06006KT 9SM OVC028 07/04 A2960 RMK SLP027=
METAR CYTZ 080800Z AUTO 05006KT 9SM OVC037 07/04 A2959 RMK SLP024=
METAR CYTZ 080700Z AUTO 06007KT 9SM OVC028 06/04 A2961 RMK SLP029=

TAF CYTZ 080738Z 0808/0908 07008KT P6SM OVC030 TEMPO 0808/0810 4SM BR
BKN005 OVC015 PROB30 0808/0810 1SM -DZ BR OVC002
FM081000 07008KT 1SM -RA -DZ BR OVC002 TEMPO 0810/0814 2SM -DZ BR
OVC004
FM081400 10008KT 2SM -DZ BR OVC004
FM081700 13005KT 5SM BR OVC006
FM081900 12010KT P6SM FEW008 BKN015
FM082100 27010KT P6SM FEW020
FM090100 30008KT P6SM BKN030
FM090400 VRB03KT 4SM -SHRA BR BKN010 OVC030 PROB30 0905/0908
11/2SM SHRA BR OVC003
RMK FCST BASED ON AUTO OBS. NXT FCST BY 081400Z=

WIARTON/ON    

METAR CYVV 080900Z VRB02KT 3SM BR OVC008 05/04 A2959 RMK ST8 SLP026=
SPECI CYVV 080815Z 18002KT 6SM BR OVC008 05/04 A2958 RMK ST8 SLP023=
METAR CYVV 080800Z VRB02KT 8SM OVC015 04/04 A2958 RMK ST8 SLP024=
METAR CYVV 080700Z 31003KT 160V330 8SM OVC015 03/03 A2959 RMK ST8 SLP028=

*** REMARK        : Forecast period has ended; this was the last TAF issued
*** REMARQUE : La période de prévision est échue; ceci était le dernier TAF qui a été émis
TAF CYVV 071938Z 0720/0723 VRB03KT P6SM OVC050 TEMPO 0720/0723 4SM
-SHRA BR
RMK NXT FCST WILL BE ISSUED AT 081045Z=
Your time UTC time
Weather data provided by Environment Canada and NAV CANADA